sensor_id;sensor_type;location;lat;lon;timestamp;pressure;altitude;pressure_sealevel;temperature;humidity
76858;BME280;65830;0.000;0.000;2023-09-08T00:02:35;100173.66;;;22.15;65.61
76858;BME280;65830;0.000;0.000;2023-09-08T00:05:00;100168.66;;;22.12;66.57
76858;BME280;65830;0.000;0.000;2023-09-08T00:07:26;100172.59;;;22.10;68.46
76858;BME280;65830;0.000;0.000;2023-09-08T00:09:51;100162.19;;;22.07;70.41
76858;BME280;65830;0.000;0.000;2023-09-08T00:12:17;100171.56;;;22.04;71.72
76858;BME280;65830;0.000;0.000;2023-09-08T00:14:42;100168.41;;;22.00;72.66
76858;BME280;65830;0.000;0.000;2023-09-08T00:17:08;100173.13;;;21.92;73.31
76858;BME280;65830;0.000;0.000;2023-09-08T00:19:33;100168.09;;;21.82;74.10
76858;BME280;65830;0.000;0.000;2023-09-08T00:21:59;100177.06;;;21.83;74.42
76858;BME280;65830;0.000;0.000;2023-09-08T00:24:25;100175.53;;;21.67;75.69
76858;BME280;65830;0.000;0.000;2023-09-08T00:26:51;100175.91;;;21.64;76.28
76858;BME280;65830;0.000;0.000;2023-09-08T00:29:16;100169.69;;;21.63;76.60
76858;BME280;65830;0.000;0.000;2023-09-08T00:31:42;100173.66;;;21.67;76.50
76858;BME280;65830;0.000;0.000;2023-09-08T00:34:07;100166.38;;;21.68;76.39
76858;BME280;65830;0.000;0.000;2023-09-08T00:36:32;100176.97;;;21.69;75.98
76858;BME280;65830;0.000;0.000;2023-09-08T00:38:58;100168.63;;;21.64;75.80
76858;BME280;65830;0.000;0.000;2023-09-08T00:41:23;100170.91;;;21.60;75.37
76858;BME280;65830;0.000;0.000;2023-09-08T00:43:49;100168.56;;;21.51;75.74
76858;BME280;65830;0.000;0.000;2023-09-08T00:46:15;100174.06;;;21.42;75.76
76858;BME280;65830;0.000;0.000;2023-09-08T00:48:41;100163.16;;;21.51;76.68
76858;BME280;65830;0.000;0.000;2023-09-08T00:51:07;100172.91;;;21.52;76.63
76858;BME280;65830;0.000;0.000;2023-09-08T00:53:35;100175.41;;;21.47;76.11
76858;BME280;65830;0.000;0.000;2023-09-08T00:56:00;100173.91;;;21.44;76.43
76858;BME280;65830;0.000;0.000;2023-09-08T00:58:26;100174.16;;;21.49;76.34
76858;BME280;65830;0.000;0.000;2023-09-08T01:00:53;100166.25;;;21.48;76.65
76858;BME280;65830;0.000;0.000;2023-09-08T01:03:18;100160.84;;;21.48;76.26
76858;BME280;65830;0.000;0.000;2023-09-08T01:05:44;100163.56;;;21.48;76.52
76858;BME280;65830;0.000;0.000;2023-09-08T01:08:12;100155.44;;;21.48;76.27
76858;BME280;65830;0.000;0.000;2023-09-08T01:10:38;100158.78;;;21.50;76.34
76858;BME280;65830;0.000;0.000;2023-09-08T01:13:04;100151.84;;;21.40;75.33
76858;BME280;65830;0.000;0.000;2023-09-08T01:15:30;100151.34;;;21.30;76.15
76858;BME280;65830;0.000;0.000;2023-09-08T01:17:55;100152.25;;;21.37;75.45
76858;BME280;65830;0.000;0.000;2023-09-08T01:20:25;100145.59;;;21.40;75.70
76858;BME280;65830;0.000;0.000;2023-09-08T01:25:20;100150.56;;;21.36;74.44
76858;BME280;65830;0.000;0.000;2023-09-08T01:27:47;100150.38;;;21.38;74.38
76858;BME280;65830;0.000;0.000;2023-09-08T01:30:14;100148.50;;;21.38;74.65
76858;BME280;65830;0.000;0.000;2023-09-08T01:32:40;100153.41;;;21.28;75.22
76858;BME280;65830;0.000;0.000;2023-09-08T01:35:06;100151.13;;;21.25;75.39
76858;BME280;65830;0.000;0.000;2023-09-08T01:37:32;100135.91;;;21.17;75.56
76858;BME280;65830;0.000;0.000;2023-09-08T01:39:57;100146.31;;;21.20;75.60
76858;BME280;65830;0.000;0.000;2023-09-08T01:42:22;100143.19;;;21.17;75.84
76858;BME280;65830;0.000;0.000;2023-09-08T01:44:48;100144.84;;;21.18;76.03
76858;BME280;65830;0.000;0.000;2023-09-08T01:47:13;100143.19;;;21.17;75.58
76858;BME280;65830;0.000;0.000;2023-09-08T01:49:39;100139.81;;;21.15;76.48
76858;BME280;65830;0.000;0.000;2023-09-08T01:52:04;100145.00;;;21.10;76.47
76858;BME280;65830;0.000;0.000;2023-09-08T01:54:30;100142.66;;;21.07;76.25
76858;BME280;65830;0.000;0.000;2023-09-08T01:56:55;100142.66;;;21.07;75.57
76858;BME280;65830;0.000;0.000;2023-09-08T01:59:21;100145.91;;;20.95;75.98
76858;BME280;65830;0.000;0.000;2023-09-08T02:01:46;100149.63;;;20.94;76.72
76858;BME280;65830;0.000;0.000;2023-09-08T02:04:12;100147.97;;;20.93;76.79
76858;BME280;65830;0.000;0.000;2023-09-08T02:06:37;100145.91;;;20.95;76.67
76858;BME280;65830;0.000;0.000;2023-09-08T02:09:03;100148.63;;;20.95;76.46
76858;BME280;65830;0.000;0.000;2023-09-08T02:11:29;100143.44;;;21.00;76.41
76858;BME280;65830;0.000;0.000;2023-09-08T02:13:54;100147.22;;;21.06;76.17
76858;BME280;65830;0.000;0.000;2023-09-08T02:16:20;100145.97;;;21.02;76.42
76858;BME280;65830;0.000;0.000;2023-09-08T02:18:50;100144.50;;;20.99;76.86
76858;BME280;65830;0.000;0.000;2023-09-08T02:21:15;100141.81;;;20.99;76.63
76858;BME280;65830;0.000;0.000;2023-09-08T02:23:41;100142.44;;;21.01;76.57
76858;BME280;65830;0.000;0.000;2023-09-08T02:26:07;100141.53;;;20.94;76.89
76858;BME280;65830;0.000;0.000;2023-09-08T02:28:33;100139.44;;;20.90;77.29
76858;BME280;65830;0.000;0.000;2023-09-08T02:30:58;100137.31;;;20.85;77.46
76858;BME280;65830;0.000;0.000;2023-09-08T02:33:24;100136.44;;;20.78;78.34
76858;BME280;65830;0.000;0.000;2023-09-08T02:35:50;100130.75;;;20.73;79.61
76858;BME280;65830;0.000;0.000;2023-09-08T02:38:16;100137.22;;;20.72;79.51
76858;BME280;65830;0.000;0.000;2023-09-08T02:40:42;100132.97;;;20.62;80.16
76858;BME280;65830;0.000;0.000;2023-09-08T02:43:10;100134.84;;;20.47;81.17
76858;BME280;65830;0.000;0.000;2023-09-08T02:45:36;100125.75;;;20.48;81.63
76858;BME280;65830;0.000;0.000;2023-09-08T02:48:01;100127.66;;;20.54;81.39
76858;BME280;65830;0.000;0.000;2023-09-08T02:50:27;100124.47;;;20.44;81.82
76858;BME280;65830;0.000;0.000;2023-09-08T02:52:52;100123.81;;;20.42;82.43
76858;BME280;65830;0.000;0.000;2023-09-08T02:55:18;100123.56;;;20.37;82.51
76858;BME280;65830;0.000;0.000;2023-09-08T02:57:43;100123.19;;;20.40;82.79
76858;BME280;65830;0.000;0.000;2023-09-08T03:00:09;100123.72;;;20.35;82.73
76858;BME280;65830;0.000;0.000;2023-09-08T03:02:34;100126.66;;;20.34;83.03
76858;BME280;65830;0.000;0.000;2023-09-08T03:05:00;100128.75;;;20.38;83.16
76858;BME280;65830;0.000;0.000;2023-09-08T03:07:26;100129.97;;;20.36;83.62
76858;BME280;65830;0.000;0.000;2023-09-08T03:09:52;100139.06;;;20.35;83.44
76858;BME280;65830;0.000;0.000;2023-09-08T03:12:17;100129.44;;;20.26;84.35
76858;BME280;65830;0.000;0.000;2023-09-08T03:14:43;100141.75;;;20.13;84.23
76858;BME280;65830;0.000;0.000;2023-09-08T03:17:08;100132.72;;;20.21;84.64
76858;BME280;65830;0.000;0.000;2023-09-08T03:19:34;100137.47;;;20.19;84.61
76858;BME280;65830;0.000;0.000;2023-09-08T03:22:00;100143.53;;;20.28;84.60
76858;BME280;65830;0.000;0.000;2023-09-08T03:24:25;100139.03;;;20.28;84.21
76858;BME280;65830;0.000;0.000;2023-09-08T03:26:50;100141.72;;;20.28;84.21
76858;BME280;65830;0.000;0.000;2023-09-08T03:29:16;100145.88;;;20.31;84.29
76858;BME280;65830;0.000;0.000;2023-09-08T03:31:41;100146.06;;;20.29;83.79
76858;BME280;65830;0.000;0.000;2023-09-08T03:34:07;100144.59;;;20.27;84.00
76858;BME280;65830;0.000;0.000;2023-09-08T03:36:33;100147.41;;;20.18;83.56
76858;BME280;65830;0.000;0.000;2023-09-08T03:39:02;100143.78;;;20.11;84.31
76858;BME280;65830;0.000;0.000;2023-09-08T03:41:27;100145.47;;;20.12;84.14
76858;BME280;65830;0.000;0.000;2023-09-08T03:43:53;100137.22;;;20.14;83.96
76858;BME280;65830;0.000;0.000;2023-09-08T03:46:18;100142.84;;;20.19;83.71
76858;BME280;65830;0.000;0.000;2023-09-08T03:48:44;100140.59;;;20.22;83.54
76858;BME280;65830;0.000;0.000;2023-09-08T03:51:09;100139.97;;;20.20;83.46
76858;BME280;65830;0.000;0.000;2023-09-08T03:53:35;100142.66;;;20.20;83.69
76858;BME280;65830;0.000;0.000;2023-09-08T03:56:00;100140.16;;;20.19;83.55
76858;BME280;65830;0.000;0.000;2023-09-08T03:58:26;100135.22;;;20.22;83.94
76858;BME280;65830;0.000;0.000;2023-09-08T04:00:52;100146.56;;;20.18;83.74
76858;BME280;65830;0.000;0.000;2023-09-08T04:03:17;100144.31;;;20.21;83.80
76858;BME280;65830;0.000;0.000;2023-09-08T04:05:43;100152.97;;;20.17;83.87
76858;BME280;65830;0.000;0.000;2023-09-08T04:08:08;100150.00;;;20.12;83.81
76858;BME280;65830;0.000;0.000;2023-09-08T04:10:34;100146.03;;;20.08;83.64
76858;BME280;65830;0.000;0.000;2023-09-08T04:13:00;100153.28;;;20.07;83.63
76858;BME280;65830;0.000;0.000;2023-09-08T04:15:25;100157.91;;;20.13;83.82
76858;BME280;65830;0.000;0.000;2023-09-08T04:17:51;100161.53;;;20.20;83.75
76858;BME280;65830;0.000;0.000;2023-09-08T04:20:17;100152.59;;;20.20;83.68
76858;BME280;65830;0.000;0.000;2023-09-08T04:22:42;100160.78;;;20.12;83.07
76858;BME280;65830;0.000;0.000;2023-09-08T04:25:09;100163.69;;;20.10;83.20
76858;BME280;65830;0.000;0.000;2023-09-08T04:27:35;100161.66;;;19.97;83.27
76858;BME280;65830;0.000;0.000;2023-09-08T04:30:03;100156.38;;;19.89;83.51
76858;BME280;65830;0.000;0.000;2023-09-08T04:32:29;100163.03;;;19.93;83.76
76858;BME280;65830;0.000;0.000;2023-09-08T04:34:56;100163.88;;;19.94;83.65
76858;BME280;65830;0.000;0.000;2023-09-08T04:37:21;100172.22;;;19.99;83.38
76858;BME280;65830;0.000;0.000;2023-09-08T04:39:47;100177.06;;;20.03;83.54
76858;BME280;65830;0.000;0.000;2023-09-08T04:42:12;100180.03;;;20.09;83.10
76858;BME280;65830;0.000;0.000;2023-09-08T04:44:39;100180.78;;;20.02;82.97
76858;BME280;65830;0.000;0.000;2023-09-08T04:47:05;100183.53;;;20.09;82.79
76858;BME280;65830;0.000;0.000;2023-09-08T04:49:31;100183.84;;;20.14;81.98
76858;BME280;65830;0.000;0.000;2023-09-08T04:51:57;100180.38;;;20.20;81.69
76858;BME280;65830;0.000;0.000;2023-09-08T04:54:24;100177.50;;;20.22;81.38
76858;BME280;65830;0.000;0.000;2023-09-08T04:56:53;100179.91;;;20.32;80.97
76858;BME280;65830;0.000;0.000;2023-09-08T04:59:20;100178.41;;;20.29;80.03
76858;BME280;65830;0.000;0.000;2023-09-08T05:01:45;100179.25;;;20.30;79.51
76858;BME280;65830;0.000;0.000;2023-09-08T05:04:11;100183.47;;;20.39;79.34
76858;BME280;65830;0.000;0.000;2023-09-08T05:06:37;100186.28;;;20.46;78.87
76858;BME280;65830;0.000;0.000;2023-09-08T05:09:02;100187.56;;;20.50;78.85
76858;BME280;65830;0.000;0.000;2023-09-08T05:11:29;100186.34;;;20.52;78.54
76858;BME280;65830;0.000;0.000;2023-09-08T05:13:56;100192.81;;;20.58;77.85
76858;BME280;65830;0.000;0.000;2023-09-08T05:16:23;100198.41;;;20.56;77.76
76858;BME280;65830;0.000;0.000;2023-09-08T05:19:05;100192.00;;;20.57;77.22
76858;BME280;65830;0.000;0.000;2023-09-08T05:21:33;100189.03;;;20.52;77.19
76858;BME280;65830;0.000;0.000;2023-09-08T05:23:59;100189.50;;;20.56;76.99
76858;BME280;65830;0.000;0.000;2023-09-08T05:26:25;100191.25;;;20.63;76.70
76858;BME280;65830;0.000;0.000;2023-09-08T05:28:51;100184.81;;;20.65;76.38
76858;BME280;65830;0.000;0.000;2023-09-08T05:31:17;100186.38;;;20.74;75.68
76858;BME280;65830;0.000;0.000;2023-09-08T05:33:42;100189.72;;;20.76;76.01
76858;BME280;65830;0.000;0.000;2023-09-08T05:36:09;100187.06;;;20.82;74.89
76858;BME280;65830;0.000;0.000;2023-09-08T05:38:34;100188.53;;;20.85;74.51
76858;BME280;65830;0.000;0.000;2023-09-08T05:41:00;100198.50;;;20.85;74.31
76858;BME280;65830;0.000;0.000;2023-09-08T05:43:25;100201.38;;;20.83;74.16
76858;BME280;65830;0.000;0.000;2023-09-08T05:45:52;100205.13;;;20.82;73.73
76858;BME280;65830;0.000;0.000;2023-09-08T05:48:19;100207.41;;;20.85;73.49
76858;BME280;65830;0.000;0.000;2023-09-08T05:50:44;100208.09;;;20.87;72.87
76858;BME280;65830;0.000;0.000;2023-09-08T05:53:11;100206.78;;;20.83;72.09
76858;BME280;65830;0.000;0.000;2023-09-08T05:55:36;100211.16;;;20.84;72.14
76858;BME280;65830;0.000;0.000;2023-09-08T05:58:02;100215.22;;;20.73;72.86
76858;BME280;65830;0.000;0.000;2023-09-08T06:00:28;100215.47;;;20.78;72.69
76858;BME280;65830;0.000;0.000;2023-09-08T06:02:54;100216.88;;;20.74;72.45
76858;BME280;65830;0.000;0.000;2023-09-08T06:05:20;100222.72;;;20.78;72.77
76858;BME280;65830;0.000;0.000;2023-09-08T06:07:46;100214.69;;;20.85;72.31
76858;BME280;65830;0.000;0.000;2023-09-08T06:10:11;100210.13;;;20.85;70.90
76858;BME280;65830;0.000;0.000;2023-09-08T06:12:37;100211.03;;;20.92;71.87
76858;BME280;65830;0.000;0.000;2023-09-08T06:15:03;100216.56;;;21.06;71.84
76858;BME280;65830;0.000;0.000;2023-09-08T06:17:30;100220.44;;;21.25;71.31
76858;BME280;65830;0.000;0.000;2023-09-08T06:19:56;100226.94;;;21.30;69.96
76858;BME280;65830;0.000;0.000;2023-09-08T06:22:21;100220.19;;;21.41;70.15
76858;BME280;65830;0.000;0.000;2023-09-08T06:24:48;100227.97;;;21.51;70.10
76858;BME280;65830;0.000;0.000;2023-09-08T06:27:15;100235.31;;;21.64;69.78
76858;BME280;65830;0.000;0.000;2023-09-08T06:29:40;100228.47;;;21.68;69.45
76858;BME280;65830;0.000;0.000;2023-09-08T06:32:09;100236.56;;;21.61;68.81
76858;BME280;65830;0.000;0.000;2023-09-08T06:34:35;100237.00;;;21.65;69.46
76858;BME280;65830;0.000;0.000;2023-09-08T06:37:02;100234.50;;;21.63;68.03
76858;BME280;65830;0.000;0.000;2023-09-08T06:39:27;100239.25;;;21.61;67.88
76858;BME280;65830;0.000;0.000;2023-09-08T06:41:54;100243.16;;;21.58;68.40
76858;BME280;65830;0.000;0.000;2023-09-08T06:44:21;100239.47;;;21.66;67.88
76858;BME280;65830;0.000;0.000;2023-09-08T06:46:46;100246.78;;;21.72;67.13
76858;BME280;65830;0.000;0.000;2023-09-08T06:49:12;100251.00;;;21.81;66.76
76858;BME280;65830;0.000;0.000;2023-09-08T06:51:38;100241.47;;;21.86;66.58
76858;BME280;65830;0.000;0.000;2023-09-08T06:54:04;100238.84;;;21.99;66.35
76858;BME280;65830;0.000;0.000;2023-09-08T06:56:35;100238.94;;;22.12;66.28
76858;BME280;65830;0.000;0.000;2023-09-08T06:59:02;100246.25;;;22.18;65.99
76858;BME280;65830;0.000;0.000;2023-09-08T07:01:28;100250.50;;;22.34;65.86
76858;BME280;65830;0.000;0.000;2023-09-08T07:03:54;100251.97;;;22.44;64.78
76858;BME280;65830;0.000;0.000;2023-09-08T07:06:20;100253.47;;;22.46;64.23
76858;BME280;65830;0.000;0.000;2023-09-08T07:08:48;100249.28;;;22.44;63.90
76858;BME280;65830;0.000;0.000;2023-09-08T07:11:16;100251.59;;;22.53;64.09
76858;BME280;65830;0.000;0.000;2023-09-08T07:13:42;100251.22;;;22.63;63.00
76858;BME280;65830;0.000;0.000;2023-09-08T07:16:07;100253.31;;;22.68;62.57
76858;BME280;65830;0.000;0.000;2023-09-08T07:18:34;100246.66;;;22.70;62.82
76858;BME280;65830;0.000;0.000;2023-09-08T07:21:02;100243.38;;;22.82;61.75
76858;BME280;65830;0.000;0.000;2023-09-08T07:23:28;100241.72;;;22.94;61.10
76858;BME280;65830;0.000;0.000;2023-09-08T07:25:53;100245.91;;;23.03;60.28
76858;BME280;65830;0.000;0.000;2023-09-08T07:28:22;100246.75;;;23.10;59.95
76858;BME280;65830;0.000;0.000;2023-09-08T07:30:48;100255.94;;;23.16;57.87
76858;BME280;65830;0.000;0.000;2023-09-08T07:33:14;100246.34;;;23.07;55.79
76858;BME280;65830;0.000;0.000;2023-09-08T07:35:40;100238.41;;;23.05;55.91
76858;BME280;65830;0.000;0.000;2023-09-08T07:38:06;100238.44;;;23.12;55.59
76858;BME280;65830;0.000;0.000;2023-09-08T07:40:33;100237.63;;;23.18;55.58
76858;BME280;65830;0.000;0.000;2023-09-08T07:42:58;100237.59;;;23.25;55.80
76858;BME280;65830;0.000;0.000;2023-09-08T07:45:24;100224.28;;;23.30;55.69
76858;BME280;65830;0.000;0.000;2023-09-08T07:47:49;100234.69;;;23.39;54.86
76858;BME280;65830;0.000;0.000;2023-09-08T07:50:15;100230.53;;;23.44;54.45
76858;BME280;65830;0.000;0.000;2023-09-08T07:52:41;100222.19;;;23.52;54.46
76858;BME280;65830;0.000;0.000;2023-09-08T07:55:06;100226.78;;;23.65;53.96
76858;BME280;65830;0.000;0.000;2023-09-08T07:57:32;100223.84;;;23.66;54.53
76858;BME280;65830;0.000;0.000;2023-09-08T07:59:57;100222.38;;;23.77;54.40
76858;BME280;65830;0.000;0.000;2023-09-08T08:02:23;100215.88;;;23.98;54.40
76858;BME280;65830;0.000;0.000;2023-09-08T08:04:48;100218.53;;;24.11;53.48
76858;BME280;65830;0.000;0.000;2023-09-08T08:07:14;100220.97;;;24.33;53.31
76858;BME280;65830;0.000;0.000;2023-09-08T08:09:39;100212.38;;;24.36;52.68
76858;BME280;65830;0.000;0.000;2023-09-08T08:12:05;100207.97;;;24.42;51.33
76858;BME280;65830;0.000;0.000;2023-09-08T08:14:30;100215.47;;;24.46;51.62
76858;BME280;65830;0.000;0.000;2023-09-08T08:16:56;100208.50;;;24.64;49.93
76858;BME280;65830;0.000;0.000;2023-09-08T08:19:21;100214.66;;;24.84;50.99
76858;BME280;65830;0.000;0.000;2023-09-08T08:21:47;100215.06;;;24.81;51.64
76858;BME280;65830;0.000;0.000;2023-09-08T08:24:12;100208.81;;;24.81;47.93
76858;BME280;65830;0.000;0.000;2023-09-08T08:26:38;100206.16;;;24.74;47.53
76858;BME280;65830;0.000;0.000;2023-09-08T08:29:04;100210.13;;;24.71;48.77
76858;BME280;65830;0.000;0.000;2023-09-08T08:31:29;100205.56;;;24.65;48.76
76858;BME280;65830;0.000;0.000;2023-09-08T08:33:55;100203.25;;;24.69;48.27
76858;BME280;65830;0.000;0.000;2023-09-08T08:36:20;100207.41;;;24.71;48.91
76858;BME280;65830;0.000;0.000;2023-09-08T08:38:46;100208.22;;;24.78;47.91
76858;BME280;65830;0.000;0.000;2023-09-08T08:41:11;100204.19;;;24.88;47.24
76858;BME280;65830;0.000;0.000;2023-09-08T08:43:37;100207.94;;;24.87;47.79
76858;BME280;65830;0.000;0.000;2023-09-08T08:46:02;100191.22;;;24.90;48.42
76858;BME280;65830;0.000;0.000;2023-09-08T08:48:29;100191.06;;;25.10;47.51
76858;BME280;65830;0.000;0.000;2023-09-08T08:50:55;100192.72;;;25.11;48.10
76858;BME280;65830;0.000;0.000;2023-09-08T08:53:21;100194.19;;;25.39;47.52
76858;BME280;65830;0.000;0.000;2023-09-08T08:55:46;100199.69;;;25.32;45.11
76858;BME280;65830;0.000;0.000;2023-09-08T08:58:12;100195.97;;;25.26;44.86
76858;BME280;65830;0.000;0.000;2023-09-08T09:00:39;100200.19;;;25.22;45.92
76858;BME280;65830;0.000;0.000;2023-09-08T09:03:06;100196.41;;;25.23;46.38
76858;BME280;65830;0.000;0.000;2023-09-08T09:05:32;100204.16;;;25.45;46.22
76858;BME280;65830;0.000;0.000;2023-09-08T09:07:59;100191.56;;;25.50;44.37
76858;BME280;65830;0.000;0.000;2023-09-08T09:10:29;100187.81;;;25.70;45.46
76858;BME280;65830;0.000;0.000;2023-09-08T09:12:55;100193.03;;;25.71;44.07
76858;BME280;65830;0.000;0.000;2023-09-08T09:15:30;100183.72;;;25.61;43.07
76858;BME280;65830;0.000;0.000;2023-09-08T09:18:04;100187.50;;;25.60;42.50
76858;BME280;65830;0.000;0.000;2023-09-08T09:20:30;100176.13;;;25.69;43.13
76858;BME280;65830;0.000;0.000;2023-09-08T09:22:55;100182.22;;;25.65;43.43
76858;BME280;65830;0.000;0.000;2023-09-08T09:25:30;100180.09;;;25.67;43.18
76858;BME280;65830;0.000;0.000;2023-09-08T09:27:59;100169.78;;;25.75;41.25
76858;BME280;65830;0.000;0.000;2023-09-08T09:30:25;100173.63;;;25.68;41.53
76858;BME280;65830;0.000;0.000;2023-09-08T09:33:01;100177.34;;;25.73;41.64
76858;BME280;65830;0.000;0.000;2023-09-08T09:35:45;100170.59;;;25.76;41.38
76858;BME280;65830;0.000;0.000;2023-09-08T09:38:11;100163.06;;;25.96;42.05
76858;BME280;65830;0.000;0.000;2023-09-08T09:40:37;100174.00;;;25.90;42.95
76858;BME280;65830;0.000;0.000;2023-09-08T09:43:02;100164.38;;;25.94;43.67
76858;BME280;65830;0.000;0.000;2023-09-08T09:45:30;100155.19;;;25.88;40.94
76858;BME280;65830;0.000;0.000;2023-09-08T09:47:55;100155.28;;;25.82;40.14
76858;BME280;65830;0.000;0.000;2023-09-08T09:50:30;100165.84;;;26.08;40.69
76858;BME280;65830;0.000;0.000;2023-09-08T09:53:01;100156.22;;;25.94;41.46
76858;BME280;65830;0.000;0.000;2023-09-08T09:55:28;100159.41;;;25.91;41.29
76858;BME280;65830;0.000;0.000;2023-09-08T09:57:57;100150.59;;;25.89;41.16
76858;BME280;65830;0.000;0.000;2023-09-08T10:00:32;100144.66;;;25.99;40.87
76858;BME280;65830;0.000;0.000;2023-09-08T10:03:01;100143.81;;;26.17;40.13
76858;BME280;65830;0.000;0.000;2023-09-08T10:05:29;100143.59;;;26.30;40.87
76858;BME280;65830;0.000;0.000;2023-09-08T10:08:00;100144.75;;;26.22;39.48
76858;BME280;65830;0.000;0.000;2023-09-08T10:10:35;100135.91;;;26.27;39.74
76858;BME280;65830;0.000;0.000;2023-09-08T10:13:05;100123.47;;;26.19;39.41
76858;BME280;65830;0.000;0.000;2023-09-08T10:15:34;100126.28;;;26.12;41.54
76858;BME280;65830;0.000;0.000;2023-09-08T10:18:03;100117.00;;;26.02;39.76
76858;BME280;65830;0.000;0.000;2023-09-08T10:20:28;100115.69;;;26.04;41.24
76858;BME280;65830;0.000;0.000;2023-09-08T10:23:00;100119.50;;;26.33;40.71
76858;BME280;65830;0.000;0.000;2023-09-08T10:25:29;100102.56;;;26.31;43.27
76858;BME280;65830;0.000;0.000;2023-09-08T10:27:56;100104.00;;;26.34;39.63
76858;BME280;65830;0.000;0.000;2023-09-08T10:30:26;100105.66;;;26.35;40.37
76858;BME280;65830;0.000;0.000;2023-09-08T10:32:51;100098.31;;;26.35;41.06
76858;BME280;65830;0.000;0.000;2023-09-08T10:35:17;100100.75;;;26.55;40.41
76858;BME280;65830;0.000;0.000;2023-09-08T10:37:44;100097.47;;;26.65;40.16
76858;BME280;65830;0.000;0.000;2023-09-08T10:40:22;100098.03;;;26.55;42.36
76858;BME280;65830;0.000;0.000;2023-09-08T10:42:48;100102.16;;;26.46;38.86
76858;BME280;65830;0.000;0.000;2023-09-08T10:45:15;100088.66;;;26.51;38.96
76858;BME280;65830;0.000;0.000;2023-09-08T10:50:15;100086.38;;;26.67;37.71
76858;BME280;65830;0.000;0.000;2023-09-08T10:52:41;100084.69;;;26.66;38.78
76858;BME280;65830;0.000;0.000;2023-09-08T10:55:06;100086.47;;;26.84;38.73
76858;BME280;65830;0.000;0.000;2023-09-08T10:57:32;100081.63;;;26.98;39.66
76858;BME280;65830;0.000;0.000;2023-09-08T11:00:00;100088.53;;;27.12;38.72
76858;BME280;65830;0.000;0.000;2023-09-08T11:05:12;100069.56;;;27.17;35.98
76858;BME280;65830;0.000;0.000;2023-09-08T11:07:39;100064.47;;;27.21;39.30
76858;BME280;65830;0.000;0.000;2023-09-08T11:10:06;100066.59;;;27.19;36.07
76858;BME280;65830;0.000;0.000;2023-09-08T11:12:31;100063.66;;;27.32;37.93
76858;BME280;65830;0.000;0.000;2023-09-08T11:14:57;100051.22;;;27.36;37.37
76858;BME280;65830;0.000;0.000;2023-09-08T11:17:26;100056.31;;;27.32;38.85
76858;BME280;65830;0.000;0.000;2023-09-08T11:19:53;100054.75;;;27.37;36.38
76858;BME280;65830;0.000;0.000;2023-09-08T11:22:21;100054.03;;;27.41;37.75
76858;BME280;65830;0.000;0.000;2023-09-08T11:24:47;100047.28;;;27.44;37.13
76858;BME280;65830;0.000;0.000;2023-09-08T11:27:13;100044.69;;;27.37;39.24
76858;BME280;65830;0.000;0.000;2023-09-08T11:29:39;100042.69;;;27.32;37.66
76858;BME280;65830;0.000;0.000;2023-09-08T11:32:07;100035.31;;;27.45;37.47
76858;BME280;65830;0.000;0.000;2023-09-08T11:34:36;100032.78;;;27.55;37.77
76858;BME280;65830;0.000;0.000;2023-09-08T11:37:07;100034.94;;;27.93;36.94
76858;BME280;65830;0.000;0.000;2023-09-08T11:39:35;100029.03;;;28.13;37.74
76858;BME280;65830;0.000;0.000;2023-09-08T11:42:00;100027.56;;;28.23;38.53
76858;BME280;65830;0.000;0.000;2023-09-08T11:44:26;100018.44;;;28.17;40.14
76858;BME280;65830;0.000;0.000;2023-09-08T11:46:52;100013.06;;;28.05;41.89
76858;BME280;65830;0.000;0.000;2023-09-08T11:49:19;100013.72;;;28.12;37.38
76858;BME280;65830;0.000;0.000;2023-09-08T11:51:45;100009.03;;;28.25;35.55
76858;BME280;65830;0.000;0.000;2023-09-08T11:54:11;100009.69;;;28.32;37.01
76858;BME280;65830;0.000;0.000;2023-09-08T11:56:37;100015.00;;;28.39;37.95
76858;BME280;65830;0.000;0.000;2023-09-08T11:59:02;99999.78;;;28.43;34.15
76858;BME280;65830;0.000;0.000;2023-09-08T12:01:28;99998.28;;;28.69;33.75
76858;BME280;65830;0.000;0.000;2023-09-08T12:03:54;99995.16;;;29.16;33.51
76858;BME280;65830;0.000;0.000;2023-09-08T12:06:22;100000.59;;;29.60;32.93
76858;BME280;65830;0.000;0.000;2023-09-08T12:08:48;100004.75;;;29.90;34.25
76858;BME280;65830;0.000;0.000;2023-09-08T12:11:14;99986.72;;;30.21;30.77
76858;BME280;65830;0.000;0.000;2023-09-08T12:13:39;99988.81;;;30.41;32.60
76858;BME280;65830;0.000;0.000;2023-09-08T12:16:20;99986.06;;;30.79;30.41
76858;BME280;65830;0.000;0.000;2023-09-08T12:18:48;99976.03;;;31.00;29.47
76858;BME280;65830;0.000;0.000;2023-09-08T12:21:15;99973.38;;;31.10;29.85
76858;BME280;65830;0.000;0.000;2023-09-08T12:23:50;99969.59;;;31.26;31.57
76858;BME280;65830;0.000;0.000;2023-09-08T12:26:16;99971.09;;;31.60;29.19
76858;BME280;65830;0.000;0.000;2023-09-08T12:28:41;99968.38;;;31.80;28.28
76858;BME280;65830;0.000;0.000;2023-09-08T12:31:07;99965.72;;;32.11;27.66
76858;BME280;65830;0.000;0.000;2023-09-08T12:33:33;99958.28;;;32.27;27.98
76858;BME280;65830;0.000;0.000;2023-09-08T12:35:58;99957.41;;;32.52;26.91
76858;BME280;65830;0.000;0.000;2023-09-08T12:38:30;99961.81;;;32.63;29.46
76858;BME280;65830;0.000;0.000;2023-09-08T12:40:55;99959.91;;;32.43;27.27
76858;BME280;65830;0.000;0.000;2023-09-08T12:43:20;99952.81;;;32.12;27.14
76858;BME280;65830;0.000;0.000;2023-09-08T12:45:46;99955.19;;;31.77;28.59
76858;BME280;65830;0.000;0.000;2023-09-08T12:48:11;99954.28;;;31.41;28.64
76858;BME280;65830;0.000;0.000;2023-09-08T12:50:37;99959.13;;;31.13;31.06
76858;BME280;65830;0.000;0.000;2023-09-08T12:53:02;99957.94;;;30.88;29.41
76858;BME280;65830;0.000;0.000;2023-09-08T12:55:28;99950.31;;;30.58;29.29
76858;BME280;65830;0.000;0.000;2023-09-08T12:57:53;99949.38;;;30.37;30.19
76858;BME280;65830;0.000;0.000;2023-09-08T13:00:21;99949.22;;;30.22;31.18
76858;BME280;65830;0.000;0.000;2023-09-08T13:02:47;99944.19;;;30.08;31.59
76858;BME280;65830;0.000;0.000;2023-09-08T13:05:13;99951.50;;;30.03;31.34